Arctika — UCKH — position and weather

sailwx.info

Track history (hours):
 
Tides and Currents Weather Stations Pressure Air Temp Water Temp Dewpoint Dewpoint Depression Visibility Wind Speed Wind Dir Waves Ship Positions

Arctika

Last reported at 2018-Aug-07 14:30 UTC. Time now 2018-Nov-15 20:46 UTC.
Position N 44°36' E 037°37'.
Warning: this ship's position is months out of date.

Length 148 m; beam 28 m.

Type: Fishing. MMSI: 273374740.

Date/timePositionNaut miles runAvg speedWind from/ knotsBaromVisibWave heightAir tempDewpointWater temp
2018-Aug-07 14:30N 44°36' E 037°37'4 7.3
2018-Aug-07 14:00N 44°36' E 037°42'1 2.9
2018-Aug-07 13:30N 44°37' E 037°44'2 3.3
2018-Aug-07 13:00N 44°36' E 037°46'2 3.3
2018-Aug-07 12:30N 44°37' E 037°48'1 2.9
2018-Aug-07 12:00N 44°37' E 037°50'1 2.7
2018-Aug-07 11:30N 44°36' E 037°49'2 3.1
2018-Aug-07 11:00N 44°37' E 037°47'2 3.0
2018-Aug-07 10:30N 44°37' E 037°45'2 3.0
2018-Aug-07 10:00N 44°37' E 037°43'1 2.1
2018-Aug-07 09:30N 44°37' E 037°42'2 3.0
2018-Aug-07 09:00N 44°36' E 037°44'2 3.2
2018-Aug-07 08:31N 44°37' E 037°46'2 3.1
2018-Aug-07 08:00N 44°36' E 037°48'2 3.4
2018-Aug-07 07:31N 44°35' E 037°50'2 3.2
2018-Aug-07 07:00N 44°35' E 037°52'2 3.9
2018-Aug-07 06:30N 44°35' E 037°50'2 3.1
2018-Aug-07 06:00N 44°36' E 037°48'2 3.1
2018-Aug-07 05:30N 44°36' E 037°46'2 3.1
2018-Aug-07 05:00N 44°37' E 037°43'0 0.8
2018-Aug-07 04:30N 44°36' E 037°44'2 3.3
2018-Aug-07 04:00N 44°36' E 037°46'2 3.3
2018-Aug-07 03:30N 44°36' E 037°48'2 3.6
2018-Aug-07 03:00N 44°35' E 037°51'5 9.8
2018-Aug-07 02:30N 44°33' E 037°57'2 3.6
2018-Aug-07 02:00N 44°33' E 037°59'0 0.0
2018-Aug-07 01:31N 44°33' E 037°59'0 0.0
2018-Aug-07 01:00N 44°33' E 037°59'0 0.0
2018-Aug-07 00:30N 44°33' E 037°59'0 0.0
2018-Aug-07 00:00N 44°33' E 037°59'0 0.0
2018-Aug-06 23:30N 44°33' E 037°59'0 0.0
2018-Aug-06 23:01N 44°33' E 037°59'0 0.0
2018-Aug-06 22:30N 44°33' E 037°59'0 0.0
2018-Aug-06 22:00N 44°33' E 037°59'0 0.0
2018-Aug-06 21:30N 44°33' E 037°59'0 0.0
2018-Aug-06 21:00N 44°33' E 037°59'0 0.0
2018-Aug-06 20:30N 44°33' E 037°59'0 0.0
2018-Aug-06 20:01N 44°33' E 037°59'0 0.0
2018-Aug-06 19:30N 44°33' E 037°59'0 0.0
2018-Aug-06 19:01N 44°33' E 037°59'0 0.0
2018-Aug-06 18:31N 44°33' E 037°59'1 1.5
2018-Aug-06 17:59N 44°33' E 037°58'4 8.7
2018-Aug-06 17:30N 44°33' E 037°52'1 2.3
2018-Aug-06 17:00N 44°35' E 037°51'2 3.0
2018-Aug-06 16:30N 44°35' E 037°49'2 3.1
2018-Aug-06 16:00N 44°36' E 037°48'1 3.0
2018-Aug-06 15:31N 44°37' E 037°46'1 2.9
2018-Aug-06 15:00N 44°37' E 037°44'1 2.3
2018-Aug-06 14:30N 44°36' E 037°43'2 3.2
2018-Aug-06 14:01N 44°36' E 037°45'2 3.3
2018-Aug-06 13:30N 44°36' E 037°48'2 3.4
2018-Aug-06 13:00N 44°35' E 037°50'1 2.0
2018-Aug-06 12:30N 44°36' E 037°48'2 3.0
2018-Aug-06 12:00N 44°36' E 037°47'2 3.1
2018-Aug-06 11:30N 44°36' E 037°44'2 3.0
2018-Aug-06 11:00N 44°37' E 037°43'1 1.9
2018-Aug-06 10:30N 44°36' E 037°43'0 0.4
2018-Aug-06 10:00N 44°36' E 037°44'0 0.5
2018-Aug-06 09:30N 44°36' E 037°44'0 0.6
2018-Aug-06 09:00N 44°36' E 037°44'0 0.7
2018-Aug-06 08:30N 44°35' E 037°45'1 2.1
2018-Aug-06 08:00N 44°36' E 037°45'1 2.7
2018-Aug-06 07:30N 44°36' E 037°43'1 1.9
2018-Aug-06 07:00N 44°37' E 037°44'0 0.6
2018-Aug-06 06:30N 44°37' E 037°45'2 3.2
2018-Aug-06 06:00N 44°36' E 037°47'2 3.3
2018-Aug-06 05:30N 44°35' E 037°49'2 3.3
2018-Aug-06 05:00N 44°35' E 037°51'0 0.6
2018-Aug-06 04:30N 44°35' E 037°51'2 3.1
2018-Aug-06 04:00N 44°36' E 037°49'2 3.0
2018-Aug-06 03:30N 44°36' E 037°47'1 3.0
2018-Aug-06 03:00N 44°37' E 037°45'2 3.2
2018-Aug-06 02:30N 44°37' E 037°43'1 2.4
2018-Aug-06 02:01N 44°38' E 037°43'0 0.0
2018-Aug-06 01:30N 44°38' E 037°43'0 0.0
2018-Aug-06 01:00N 44°38' E 037°43'0 0.0
2018-Aug-06 00:30N 44°38' E 037°43'0 0.0
2018-Aug-06 00:00N 44°38' E 037°43'0 0.0
2018-Aug-05 23:29N 44°38' E 037°43'0 0.0
2018-Aug-05 23:00N 44°38' E 037°43'0 0.0
2018-Aug-05 22:30N 44°38' E 037°43'0 0.0
2018-Aug-05 21:47N 44°38' E 037°43'0 0.0
2018-Aug-05 21:30N 44°38' E 037°43'0 0.0
2018-Aug-05 21:00N 44°38' E 037°43'0 0.0
2018-Aug-05 20:30N 44°38' E 037°43'0 0.0
2018-Aug-05 20:00N 44°38' E 037°43'0 0.0
2018-Aug-05 19:30N 44°38' E 037°43'0 0.0
2018-Aug-05 19:00N 44°38' E 037°43'0 0.0
2018-Aug-05 18:30N 44°38' E 037°43'0 0.0
2018-Aug-05 18:00N 44°38' E 037°43'0 0.0
2018-Aug-05 17:31N 44°38' E 037°43'1 2.7
2018-Aug-05 17:00N 44°37' E 037°44'2 3.2
2018-Aug-05 16:30N 44°36' E 037°46'2 3.3
2018-Aug-05 16:00N 44°37' E 037°48'1 2.2
2018-Aug-05 15:31N 44°36' E 037°49'1 2.7
2018-Aug-05 15:01N 44°36' E 037°47'1 3.0
2018-Aug-05 14:30N 44°36' E 037°45'2 1.9
2018-Aug-05 13:31N 44°37' E 037°43'2 3.3
2018-Aug-05 13:00N 44°37' E 037°45'2 3.0
2018-Aug-05 12:30N 44°36' E 037°47'1 3.0
2018-Aug-05 12:01N 44°35' E 037°49'2 3.2
2018-Aug-05 11:31N 44°35' E 037°51'2 3.0
2018-Aug-05 11:00N 44°34' E 037°53'1 3.0
2018-Aug-05 10:30N 44°33' E 037°54'2 3.1
2018-Aug-05 10:00N 44°33' E 037°56'2 3.1
2018-Aug-05 09:31N 44°32' E 037°58'0 0.1
2018-Aug-05 09:00N 44°31' E 037°58'1 1.5
2018-Aug-05 08:31N 44°32' E 037°57'0 0.8
2018-Aug-05 08:00N 44°32' E 037°57'0 0.8
2018-Aug-05 07:30N 44°31' E 037°58'1 1.5
2018-Aug-05 07:00N 44°32' E 037°58'2 3.2
2018-Aug-05 06:30N 44°33' E 037°56'1 3.0
2018-Aug-05 06:01N 44°34' E 037°54'1 2.9
2018-Aug-05 05:30N 44°34' E 037°53'1 2.9
2018-Aug-05 05:00N 44°36' E 037°51'2 3.1
2018-Aug-05 04:30N 44°36' E 037°49'1 2.8
2018-Aug-05 04:00N 44°36' E 037°47'2 3.0
2018-Aug-05 03:30N 44°36' E 037°45'1 2.9
2018-Aug-05 03:00N 44°37' E 037°43'0 0.2
2018-Aug-05 02:30N 44°37' E 037°43'1 2.6
2018-Aug-05 02:00N 44°38' E 037°43'0 0.0
2018-Aug-05 01:30N 44°38' E 037°43'0 0.0
2018-Aug-05 01:00N 44°38' E 037°43'0 0.0
2018-Aug-05 00:30N 44°38' E 037°43'0 0.0
2018-Aug-05 00:00N 44°38' E 037°43'0 0.0
2018-Aug-04 23:30N 44°38' E 037°43'0 0.0
2018-Aug-04 23:00N 44°38' E 037°43'0 0.0
2018-Aug-04 22:30N 44°38' E 037°43'0 0.0
2018-Aug-04 22:00N 44°38' E 037°43'0 0.0
2018-Aug-04 21:30N 44°38' E 037°43'0 0.0
2018-Aug-04 21:00N 44°38' E 037°43'0 0.0
2018-Aug-04 20:30N 44°38' E 037°43'0 0.0
2018-Aug-04 20:01N 44°38' E 037°43'0 0.2
2018-Aug-04 19:30N 44°38' E 037°43'4 7.1
2018-Aug-04 19:00N 44°36' E 037°39'4 8.1
2018-Aug-04 18:30N 44°37' E 037°34'  
2018-Jul-31 15:48N 44°36' E 037°37'3 9.0
2018-Jul-31 15:30N 44°36' E 037°41'2 4.7
2018-Jul-31 14:59N 44°36' E 037°44'1 2.9
2018-Jul-31 14:31N 44°36' E 037°46'2 3.1
2018-Jul-31 14:00N 44°36' E 037°48'2 3.0
2018-Jul-31 13:30N 44°36' E 037°50'0 0.4
2018-Jul-31 13:00N 44°36' E 037°50'1 3.0
2018-Jul-31 12:30N 44°36' E 037°48'1 2.8
2018-Jul-31 12:00N 44°37' E 037°46'1 2.4
2018-Jul-31 11:30N 44°37' E 037°45'1 2.8
2018-Jul-31 10:59N 44°36' E 037°47'2 3.2
2018-Jul-31 10:29N 44°36' E 037°49'2 3.1
2018-Jul-31 10:00N 44°35' E 037°50'2 3.1
2018-Jul-31 09:29N 44°34' E 037°52'1 1.3
2018-Jul-31 09:00N 44°35' E 037°53'1 2.9
2018-Jul-31 08:30N 44°35' E 037°51'1 2.3
2018-Jul-31 08:00N 44°34' E 037°52'2 3.2
2018-Jul-31 07:29N 44°34' E 037°55'2 3.1
2018-Jul-31 06:59N 44°33' E 037°57'2 4.2
2018-Jul-31 06:30N 44°32' E 037°59'4 8.2
2018-Jul-31 05:58N 44°28' E 038°03'1 2.9
2018-Jul-31 05:30N 44°27' E 038°04'1 0.8
2018-Jul-31 03:47N 44°28' E 038°03'2 3.2
2018-Jul-31 03:13N 44°30' E 038°01'1 3.4
2018-Jul-31 02:50N 44°31' E 038°00'1 3.5
2018-Jul-31 02:30N 44°32' E 037°59'2 3.0
2018-Jul-31 02:01N 44°33' E 037°59'0 0.0
2018-Jul-31 01:30N 44°33' E 037°59'0 0.0
2018-Jul-31 00:59N 44°33' E 037°59'0 0.0
2018-Jul-31 00:29N 44°33' E 037°59'0 0.0
2018-Jul-31 00:00N 44°33' E 037°59'0 0.0
2018-Jul-30 23:30N 44°33' E 037°59'0 0.0
2018-Jul-30 22:59N 44°33' E 037°59'0 0.0
2018-Jul-30 22:30N 44°33' E 037°59'0 0.0
2018-Jul-30 21:59N 44°33' E 037°59'0 0.0
2018-Jul-30 21:30N 44°33' E 037°59'0 0.0
2018-Jul-30 21:00N 44°33' E 037°59'0 0.0
2018-Jul-30 20:29N 44°33' E 037°59'0 0.0
2018-Jul-30 19:59N 44°33' E 037°59'0 0.0
2018-Jul-30 19:30N 44°33' E 037°59'0 0.0
2018-Jul-30 19:00N 44°33' E 037°59'0 0.0
2018-Jul-30 18:29N 44°33' E 037°59'0 0.0
2018-Jul-30 18:00N 44°33' E 037°59'2 3.4
2018-Jul-30 17:30N 44°34' E 037°57'3 5.5
2018-Jul-30 17:00N 44°36' E 037°54'2 2.7
2018-Jul-30 16:21N 44°36' E 037°52'1 3.2
2018-Jul-30 16:00N 44°36' E 037°50'1 2.7
2018-Jul-30 15:30N 44°35' E 037°49'2 3.2
2018-Jul-30 15:00N 44°35' E 037°51'2 3.1
2018-Jul-30 14:30N 44°34' E 037°53'1 3.0
2018-Jul-30 14:00N 44°33' E 037°55'2 3.5
2018-Jul-30 13:30N 44°32' E 037°57'2 3.2
2018-Jul-30 13:00N 44°33' E 037°59'0 0.4
2018-Jul-30 12:29N 44°33' E 037°58'0 0.9
2018-Jul-30 11:58N 44°33' E 037°58'2 3.7
2018-Jul-30 11:29N 44°33' E 037°55'2 3.2
2018-Jul-30 11:00N 44°34' E 037°53'2 3.4
2018-Jul-30 10:28N 44°35' E 037°51'2 3.5
2018-Jul-30 10:00N 44°36' E 037°49'1 2.5
2018-Jul-30 09:30N 44°35' E 037°50'1 3.0
2018-Jul-30 09:01N 44°34' E 037°52'2 3.2
2018-Jul-30 08:29N 44°34' E 037°54'2 3.2
2018-Jul-30 08:00N 44°33' E 037°56'1 2.7
2018-Jul-30 07:29N 44°33' E 037°54'1 1.7
2018-Jul-30 07:00N 44°33' E 037°55'1 2.7
2018-Jul-30 06:30N 44°32' E 037°57'2 3.2
2018-Jul-30 06:00N 44°32' E 037°59'2 3.2
2018-Jul-30 05:30N 44°31' E 038°01'3 3.3
2018-Jul-30 04:36N 44°28' E 038°03'2 2.5
2018-Jul-30 03:51N 44°30' E 038°02'1 3.3
2018-Jul-30 03:30N 44°31' E 038°01'2 3.3
2018-Jul-30 03:00N 44°32' E 037°59'1 1.3
2018-Jul-30 02:30N 44°32' E 037°58'1 2.7
2018-Jul-30 02:00N 44°33' E 037°59'0 0.0
2018-Jul-30 01:30N 44°33' E 037°59'0 0.0
2018-Jul-30 00:58N 44°33' E 037°59'0 0.0
2018-Jul-30 00:28N 44°33' E 037°59'0 0.0
2018-Jul-30 00:00N 44°33' E 037°59'0 0.0
2018-Jul-29 23:31N 44°33' E 037°59'0 0.0
2018-Jul-29 23:01N 44°33' E 037°59'0 0.0
2018-Jul-29 22:30N 44°33' E 037°59'0 0.0
2018-Jul-29 22:00N 44°33' E 037°59'0 0.0
2018-Jul-29 21:30N 44°33' E 037°59'0 0.0
2018-Jul-29 21:00N 44°33' E 037°59'0 0.0
2018-Jul-29 20:30N 44°33' E 037°59'0 0.0
2018-Jul-29 19:59N 44°33' E 037°59'0 0.0
2018-Jul-29 19:31N 44°33' E 037°59'0 0.0
2018-Jul-29 19:00N 44°33' E 037°59'0 0.0
2018-Jul-29 18:30N 44°33' E 037°59'0 0.1
2018-Jul-29 17:59N 44°33' E 037°59'1 2.9
2018-Jul-29 17:29N 44°32' E 037°58'1 2.7
2018-Jul-29 16:59N 44°32' E 037°59'2 3.3
2018-Jul-29 16:30N 44°31' E 038°01'2 3.3
2018-Jul-29 16:00N 44°29' E 038°02'2 3.2
2018-Jul-29 15:29N 44°28' E 038°03'1 2.8
2018-Jul-29 14:58N 44°26' E 038°04'2 1.6
2018-Jul-29 13:36N 44°28' E 038°02'0 1.7
2018-Jul-29 13:20N 44°28' E 038°02'1 0.3
2018-Jul-29 10:40N 44°28' E 038°03'1 7.5
2018-Jul-29 10:29N 44°29' E 038°01'4 7.8
2018-Jul-29 10:00N 44°32' E 037°58'2 3.7
2018-Jul-29 09:30N 44°33' E 037°56'2 3.1
2018-Jul-29 09:00N 44°34' E 037°54'2 3.1
2018-Jul-29 08:30N 44°34' E 037°52'2 3.0
2018-Jul-29 07:59N 44°35' E 037°50'2 3.1
2018-Jul-29 07:30N 44°36' E 037°48'1 1.3
2018-Jul-29 07:00N 44°36' E 037°48'3 5.4
2018-Jul-29 06:29N 44°36' E 037°44'  
Track history (hours):
 
Tides and Currents Weather Stations Pressure Air Temp Water Temp Dewpoint Dewpoint Depression Visibility Wind Speed Wind Dir Waves Ship Positions

Arctika

Last reported at 2018-Aug-07 14:30 UTC. Time now 2018-Nov-15 20:46 UTC.
Position N 44°36' E 037°37'.
Warning: this ship's position is months out of date.

Length 148 m; beam 28 m.

Type: Fishing. MMSI: 273374740.

Date/timePositionNaut miles runAvg speedWind from/ knotsBaromVisibWave heightAir tempDewpointWater temp
2018-Aug-07 14:30N 44°36' E 037°37'4 7.3
2018-Aug-07 14:00N 44°36' E 037°42'1 2.9
2018-Aug-07 13:30N 44°37' E 037°44'2 3.3
2018-Aug-07 13:00N 44°36' E 037°46'2 3.3
2018-Aug-07 12:30N 44°37' E 037°48'1 2.9
2018-Aug-07 12:00N 44°37' E 037°50'1 2.7
2018-Aug-07 11:30N 44°36' E 037°49'2 3.1
2018-Aug-07 11:00N 44°37' E 037°47'2 3.0
2018-Aug-07 10:30N 44°37' E 037°45'2 3.0
2018-Aug-07 10:00N 44°37' E 037°43'1 2.1
2018-Aug-07 09:30N 44°37' E 037°42'2 3.0
2018-Aug-07 09:00N 44°36' E 037°44'2 3.2
2018-Aug-07 08:31N 44°37' E 037°46'2 3.1
2018-Aug-07 08:00N 44°36' E 037°48'2 3.4
2018-Aug-07 07:31N 44°35' E 037°50'2 3.2
2018-Aug-07 07:00N 44°35' E 037°52'2 3.9
2018-Aug-07 06:30N 44°35' E 037°50'2 3.1
2018-Aug-07 06:00N 44°36' E 037°48'2 3.1
2018-Aug-07 05:30N 44°36' E 037°46'2 3.1
2018-Aug-07 05:00N 44°37' E 037°43'0 0.8
2018-Aug-07 04:30N 44°36' E 037°44'2 3.3
2018-Aug-07 04:00N 44°36' E 037°46'2 3.3
2018-Aug-07 03:30N 44°36' E 037°48'2 3.6
2018-Aug-07 03:00N 44°35' E 037°51'5 9.8
2018-Aug-07 02:30N 44°33' E 037°57'2 3.6
2018-Aug-07 02:00N 44°33' E 037°59'0 0.0
2018-Aug-07 01:31N 44°33' E 037°59'0 0.0
2018-Aug-07 01:00N 44°33' E 037°59'0 0.0
2018-Aug-07 00:30N 44°33' E 037°59'0 0.0
2018-Aug-07 00:00N 44°33' E 037°59'0 0.0
2018-Aug-06 23:30N 44°33' E 037°59'0 0.0
2018-Aug-06 23:01N 44°33' E 037°59'0 0.0
2018-Aug-06 22:30N 44°33' E 037°59'0 0.0
2018-Aug-06 22:00N 44°33' E 037°59'0 0.0
2018-Aug-06 21:30N 44°33' E 037°59'0 0.0
2018-Aug-06 21:00N 44°33' E 037°59'0 0.0
2018-Aug-06 20:30N 44°33' E 037°59'0 0.0
2018-Aug-06 20:01N 44°33' E 037°59'0 0.0
2018-Aug-06 19:30N 44°33' E 037°59'0 0.0
2018-Aug-06 19:01N 44°33' E 037°59'0 0.0
2018-Aug-06 18:31N 44°33' E 037°59'1 1.5
2018-Aug-06 17:59N 44°33' E 037°58'4 8.7
2018-Aug-06 17:30N 44°33' E 037°52'1 2.3
2018-Aug-06 17:00N 44°35' E 037°51'2 3.0
2018-Aug-06 16:30N 44°35' E 037°49'2 3.1
2018-Aug-06 16:00N 44°36' E 037°48'1 3.0
2018-Aug-06 15:31N 44°37' E 037°46'1 2.9
2018-Aug-06 15:00N 44°37' E 037°44'1 2.3
2018-Aug-06 14:30N 44°36' E 037°43'2 3.2
2018-Aug-06 14:01N 44°36' E 037°45'2 3.3
2018-Aug-06 13:30N 44°36' E 037°48'2 3.4
2018-Aug-06 13:00N 44°35' E 037°50'1 2.0
2018-Aug-06 12:30N 44°36' E 037°48'2 3.0
2018-Aug-06 12:00N 44°36' E 037°47'2 3.1
2018-Aug-06 11:30N 44°36' E 037°44'2 3.0
2018-Aug-06 11:00N 44°37' E 037°43'1 1.9
2018-Aug-06 10:30N 44°36' E 037°43'0 0.4
2018-Aug-06 10:00N 44°36' E 037°44'0 0.5
2018-Aug-06 09:30N 44°36' E 037°44'0 0.6
2018-Aug-06 09:00N 44°36' E 037°44'0 0.7
2018-Aug-06 08:30N 44°35' E 037°45'1 2.1
2018-Aug-06 08:00N 44°36' E 037°45'1 2.7
2018-Aug-06 07:30N 44°36' E 037°43'1 1.9
2018-Aug-06 07:00N 44°37' E 037°44'0 0.6
2018-Aug-06 06:30N 44°37' E 037°45'2 3.2
2018-Aug-06 06:00N 44°36' E 037°47'2 3.3
2018-Aug-06 05:30N 44°35' E 037°49'2 3.3
2018-Aug-06 05:00N 44°35' E 037°51'0 0.6
2018-Aug-06 04:30N 44°35' E 037°51'2 3.1
2018-Aug-06 04:00N 44°36' E 037°49'2 3.0
2018-Aug-06 03:30N 44°36' E 037°47'1 3.0
2018-Aug-06 03:00N 44°37' E 037°45'2 3.2
2018-Aug-06 02:30N 44°37' E 037°43'1 2.4
2018-Aug-06 02:01N 44°38' E 037°43'0 0.0
2018-Aug-06 01:30N 44°38' E 037°43'0 0.0
2018-Aug-06 01:00N 44°38' E 037°43'0 0.0
2018-Aug-06 00:30N 44°38' E 037°43'0 0.0
2018-Aug-06 00:00N 44°38' E 037°43'0 0.0
2018-Aug-05 23:29N 44°38' E 037°43'0 0.0
2018-Aug-05 23:00N 44°38' E 037°43'0 0.0
2018-Aug-05 22:30N 44°38' E 037°43'0 0.0
2018-Aug-05 21:47N 44°38' E 037°43'0 0.0
2018-Aug-05 21:30N 44°38' E 037°43'0 0.0
2018-Aug-05 21:00N 44°38' E 037°43'0 0.0
2018-Aug-05 20:30N 44°38' E 037°43'0 0.0
2018-Aug-05 20:00N 44°38' E 037°43'0 0.0
2018-Aug-05 19:30N 44°38' E 037°43'0 0.0
2018-Aug-05 19:00N 44°38' E 037°43'0 0.0
2018-Aug-05 18:30N 44°38' E 037°43'0 0.0
2018-Aug-05 18:00N 44°38' E 037°43'0 0.0
2018-Aug-05 17:31N 44°38' E 037°43'1 2.7
2018-Aug-05 17:00N 44°37' E 037°44'2 3.2
2018-Aug-05 16:30N 44°36' E 037°46'2 3.3
2018-Aug-05 16:00N 44°37' E 037°48'1 2.2
2018-Aug-05 15:31N 44°36' E 037°49'1 2.7
2018-Aug-05 15:01N 44°36' E 037°47'1 3.0
2018-Aug-05 14:30N 44°36' E 037°45'2 1.9
2018-Aug-05 13:31N 44°37' E 037°43'2 3.3
2018-Aug-05 13:00N 44°37' E 037°45'2 3.0
2018-Aug-05 12:30N 44°36' E 037°47'1 3.0
2018-Aug-05 12:01N 44°35' E 037°49'2 3.2
2018-Aug-05 11:31N 44°35' E 037°51'2 3.0
2018-Aug-05 11:00N 44°34' E 037°53'1 3.0
2018-Aug-05 10:30N 44°33' E 037°54'2 3.1
2018-Aug-05 10:00N 44°33' E 037°56'2 3.1
2018-Aug-05 09:31N 44°32' E 037°58'0 0.1
2018-Aug-05 09:00N 44°31' E 037°58'1 1.5
2018-Aug-05 08:31N 44°32' E 037°57'0 0.8
2018-Aug-05 08:00N 44°32' E 037°57'0 0.8
2018-Aug-05 07:30N 44°31' E 037°58'1 1.5
2018-Aug-05 07:00N 44°32' E 037°58'2 3.2
2018-Aug-05 06:30N 44°33' E 037°56'1 3.0
2018-Aug-05 06:01N 44°34' E 037°54'1 2.9
2018-Aug-05 05:30N 44°34' E 037°53'1 2.9
2018-Aug-05 05:00N 44°36' E 037°51'2 3.1
2018-Aug-05 04:30N 44°36' E 037°49'1 2.8
2018-Aug-05 04:00N 44°36' E 037°47'2 3.0
2018-Aug-05 03:30N 44°36' E 037°45'1 2.9
2018-Aug-05 03:00N 44°37' E 037°43'0 0.2
2018-Aug-05 02:30N 44°37' E 037°43'1 2.6
2018-Aug-05 02:00N 44°38' E 037°43'0 0.0
2018-Aug-05 01:30N 44°38' E 037°43'0 0.0
2018-Aug-05 01:00N 44°38' E 037°43'0 0.0
2018-Aug-05 00:30N 44°38' E 037°43'0 0.0
2018-Aug-05 00:00N 44°38' E 037°43'0 0.0
2018-Aug-04 23:30N 44°38' E 037°43'0 0.0
2018-Aug-04 23:00N 44°38' E 037°43'0 0.0
2018-Aug-04 22:30N 44°38' E 037°43'0 0.0
2018-Aug-04 22:00N 44°38' E 037°43'0 0.0
2018-Aug-04 21:30N 44°38' E 037°43'0 0.0
2018-Aug-04 21:00N 44°38' E 037°43'0 0.0
2018-Aug-04 20:30N 44°38' E 037°43'0 0.0
2018-Aug-04 20:01N 44°38' E 037°43'0 0.2
2018-Aug-04 19:30N 44°38' E 037°43'4 7.1
2018-Aug-04 19:00N 44°36' E 037°39'4 8.1
2018-Aug-04 18:30N 44°37' E 037°34'  
2018-Jul-31 15:48N 44°36' E 037°37'3 9.0
2018-Jul-31 15:30N 44°36' E 037°41'2 4.7
2018-Jul-31 14:59N 44°36' E 037°44'1 2.9
2018-Jul-31 14:31N 44°36' E 037°46'2 3.1
2018-Jul-31 14:00N 44°36' E 037°48'2 3.0
2018-Jul-31 13:30N 44°36' E 037°50'0 0.4
2018-Jul-31 13:00N 44°36' E 037°50'1 3.0
2018-Jul-31 12:30N 44°36' E 037°48'1 2.8
2018-Jul-31 12:00N 44°37' E 037°46'1 2.4
2018-Jul-31 11:30N 44°37' E 037°45'1 2.8
2018-Jul-31 10:59N 44°36' E 037°47'2 3.2
2018-Jul-31 10:29N 44°36' E 037°49'2 3.1
2018-Jul-31 10:00N 44°35' E 037°50'2 3.1
2018-Jul-31 09:29N 44°34' E 037°52'1 1.3
2018-Jul-31 09:00N 44°35' E 037°53'1 2.9
2018-Jul-31 08:30N 44°35' E 037°51'1 2.3
2018-Jul-31 08:00N 44°34' E 037°52'2 3.2
2018-Jul-31 07:29N 44°34' E 037°55'2 3.1
2018-Jul-31 06:59N 44°33' E 037°57'2 4.2
2018-Jul-31 06:30N 44°32' E 037°59'4 8.2
2018-Jul-31 05:58N 44°28' E 038°03'1 2.9
2018-Jul-31 05:30N 44°27' E 038°04'1 0.8
2018-Jul-31 03:47N 44°28' E 038°03'2 3.2
2018-Jul-31 03:13N 44°30' E 038°01'1 3.4
2018-Jul-31 02:50N 44°31' E 038°00'1 3.5
2018-Jul-31 02:30N 44°32' E 037°59'2 3.0
2018-Jul-31 02:01N 44°33' E 037°59'0 0.0
2018-Jul-31 01:30N 44°33' E 037°59'0 0.0
2018-Jul-31 00:59N 44°33' E 037°59'0 0.0
2018-Jul-31 00:29N 44°33' E 037°59'0 0.0
2018-Jul-31 00:00N 44°33' E 037°59'0 0.0
2018-Jul-30 23:30N 44°33' E 037°59'0 0.0
2018-Jul-30 22:59N 44°33' E 037°59'0 0.0
2018-Jul-30 22:30N 44°33' E 037°59'0 0.0
2018-Jul-30 21:59N 44°33' E 037°59'0 0.0
2018-Jul-30 21:30N 44°33' E 037°59'0 0.0
2018-Jul-30 21:00N 44°33' E 037°59'0 0.0
2018-Jul-30 20:29N 44°33' E 037°59'0 0.0
2018-Jul-30 19:59N 44°33' E 037°59'0 0.0
2018-Jul-30 19:30N 44°33' E 037°59'0 0.0
2018-Jul-30 19:00N 44°33' E 037°59'0 0.0
2018-Jul-30 18:29N 44°33' E 037°59'0 0.0
2018-Jul-30 18:00N 44°33' E 037°59'2 3.4
2018-Jul-30 17:30N 44°34' E 037°57'3 5.5
2018-Jul-30 17:00N 44°36' E 037°54'2 2.7
2018-Jul-30 16:21N 44°36' E 037°52'1 3.2
2018-Jul-30 16:00N 44°36' E 037°50'1 2.7
2018-Jul-30 15:30N 44°35' E 037°49'2 3.2
2018-Jul-30 15:00N 44°35' E 037°51'2 3.1
2018-Jul-30 14:30N 44°34' E 037°53'1 3.0
2018-Jul-30 14:00N 44°33' E 037°55'2 3.5
2018-Jul-30 13:30N 44°32' E 037°57'2 3.2
2018-Jul-30 13:00N 44°33' E 037°59'0 0.4
2018-Jul-30 12:29N 44°33' E 037°58'0 0.9
2018-Jul-30 11:58N 44°33' E 037°58'2 3.7
2018-Jul-30 11:29N 44°33' E 037°55'2 3.2
2018-Jul-30 11:00N 44°34' E 037°53'2 3.4
2018-Jul-30 10:28N 44°35' E 037°51'2 3.5
2018-Jul-30 10:00N 44°36' E 037°49'1 2.5
2018-Jul-30 09:30N 44°35' E 037°50'1 3.0
2018-Jul-30 09:01N 44°34' E 037°52'2 3.2
2018-Jul-30 08:29N 44°34' E 037°54'2 3.2
2018-Jul-30 08:00N 44°33' E 037°56'1 2.7
2018-Jul-30 07:29N 44°33' E 037°54'1 1.7
2018-Jul-30 07:00N 44°33' E 037°55'1 2.7
2018-Jul-30 06:30N 44°32' E 037°57'2 3.2
2018-Jul-30 06:00N 44°32' E 037°59'2 3.2
2018-Jul-30 05:30N 44°31' E 038°01'3 3.3
2018-Jul-30 04:36N 44°28' E 038°03'2 2.5
2018-Jul-30 03:51N 44°30' E 038°02'1 3.3
2018-Jul-30 03:30N 44°31' E 038°01'2 3.3
2018-Jul-30 03:00N 44°32' E 037°59'1 1.3
2018-Jul-30 02:30N 44°32' E 037°58'1 2.7
2018-Jul-30 02:00N 44°33' E 037°59'0 0.0
2018-Jul-30 01:30N 44°33' E 037°59'0 0.0
2018-Jul-30 00:58N 44°33' E 037°59'0 0.0
2018-Jul-30 00:28N 44°33' E 037°59'0 0.0
2018-Jul-30 00:00N 44°33' E 037°59'0 0.0
2018-Jul-29 23:31N 44°33' E 037°59'0 0.0
2018-Jul-29 23:01N 44°33' E 037°59'0 0.0
2018-Jul-29 22:30N 44°33' E 037°59'0 0.0
2018-Jul-29 22:00N 44°33' E 037°59'0 0.0
2018-Jul-29 21:30N 44°33' E 037°59'0 0.0
2018-Jul-29 21:00N 44°33' E 037°59'0 0.0
2018-Jul-29 20:30N 44°33' E 037°59'0 0.0
2018-Jul-29 19:59N 44°33' E 037°59'0 0.0
2018-Jul-29 19:31N 44°33' E 037°59'0 0.0
2018-Jul-29 19:00N 44°33' E 037°59'0 0.0
2018-Jul-29 18:30N 44°33' E 037°59'0 0.1
2018-Jul-29 17:59N 44°33' E 037°59'1 2.9
2018-Jul-29 17:29N 44°32' E 037°58'1 2.7
2018-Jul-29 16:59N 44°32' E 037°59'2 3.3
2018-Jul-29 16:30N 44°31' E 038°01'2 3.3
2018-Jul-29 16:00N 44°29' E 038°02'2 3.2
2018-Jul-29 15:29N 44°28' E 038°03'1 2.8
2018-Jul-29 14:58N 44°26' E 038°04'2 1.6
2018-Jul-29 13:36N 44°28' E 038°02'0 1.7
2018-Jul-29 13:20N 44°28' E 038°02'1 0.3
2018-Jul-29 10:40N 44°28' E 038°03'1 7.5
2018-Jul-29 10:29N 44°29' E 038°01'4 7.8
2018-Jul-29 10:00N 44°32' E 037°58'2 3.7
2018-Jul-29 09:30N 44°33' E 037°56'2 3.1
2018-Jul-29 09:00N 44°34' E 037°54'2 3.1
2018-Jul-29 08:30N 44°34' E 037°52'2 3.0
2018-Jul-29 07:59N 44°35' E 037°50'2 3.1
2018-Jul-29 07:30N 44°36' E 037°48'1 1.3
2018-Jul-29 07:00N 44°36' E 037°48'3 5.4
2018-Jul-29 06:29N 44°36' E 037°44'  

Dump ship's entire track history